Aeroporto :
LOGIN :

Iscrizione | Disclaimer

   EN    FR    IT 

 










Sommario :    VFR   VFR Marginale   IFR   IFR Intensivo   IFR Molto Intensivo
Visibilità : 
Base nubi : 
>= 8 km
>= 3000ft
5 / 8 km
1000 / 3000 ft
1500m / 5 km
500 / 1000 ft
800 / 1500m
200 / 500 ft
< 800m
< 200 ft
Simboli :   Temporali  Nebbia  Neve Forte  Precipitazioni Forti  Vento > 20 kt
SIGMETs :   Varie  Temporali  Ghiacco  Turbolenza  Onda orograficha  Ceneri Vulcaniche






- Altitudine del aeroporto : 164 ft
- Codice IATA : VBY


ESSV - Visby

ULTIMO METAR :
  • 240220Z AUTO 19005KT 9999 OVC070/// 06/05 Q1006

METARs OBSOLETI :
  • 240150Z AUTO 19005KT 9999 OVC068/// 05/05 Q1006
  • 240120Z AUTO 20006KT 9999 OVC068/// 06/06 Q1006
  • 240050Z AUTO 17005KT 9999 OVC068/// 05/05 Q1006
  • 240020Z AUTO 13003KT 9999 BKN070/// 04/04 Q1006
  • 232350Z AUTO 14002KT 9999 BKN068/// 04/04 Q1006

Previsioni scadute.



MetMap, La meteo Aeronautica in un colpo d'occhio ! - Copyright ORBIFLY Dicembre 2007 - Disclaimer

ORBIFLY MET'MAP TEAM :

Programmazione e sviluppo : Alexandra Zaïnal
Concezione : Baudouin d'Aumeries
Aiuto per la programmazione : Marc-Olivier Méhu
Supporto tecnico e logistico : Manuel Goepfert
Aiuto per la traduzione : Arnaldo La Scala

Contatto : metmap@orbifly.com




FONTI E CREDITI :

   NOAA